< < Back
Terminal Aerodrome Forecast


Current Version              Previous Versions:   1  2  3  4  5  6  7  8  9  

Terminal Aerodrome Forecast

794
FTUS42 KFFC 291138 CCA
TAFCSG
TAF COR
KCSG 291138Z 2912/3012 VRB04KT P6SM SCT004 SCT150
      TEMPO 2912/2913 BKN004
     FM291400 03005KT P6SM SCT040 SCT250
     FM291900 24006KT P6SM VCSH SCT050
     FM300000 24003KT P6SM SCT080=

Latest METAR

628
SAUS70 KWBC 300600 RRK
MTRCSG
METAR KCSG 300551Z AUTO 23003KT 10SM OVC060 25/22 A2996 RMK AO2 SLP139
T02500217 10294 20250 58000


USA.gov is the U.S. government's official web portal to all federal, state and local government web resources and services.